createdAt,value
2022-08-14T00:02:03.610Z,7.18
2022-08-14T00:04:44.770Z,9.35
2022-08-14T00:10:01.843Z,7.53
2022-08-14T00:12:39.426Z,8.23
2022-08-14T00:15:13.331Z,7.78
2022-08-14T00:17:48.477Z,7.30
2022-08-14T00:20:35.939Z,7.60
2022-08-14T00:23:16.904Z,8.52
2022-08-14T00:25:58.581Z,11.35
2022-08-14T00:28:34.907Z,8.82
2022-08-14T00:31:04.818Z,7.18
2022-08-14T00:33:50.952Z,7.80
2022-08-14T00:36:37.588Z,7.18
2022-08-14T00:39:18.320Z,9.63
2022-08-14T00:41:47.761Z,7.60
2022-08-14T00:44:15.320Z,7.72
2022-08-14T00:47:02.482Z,6.90
2022-08-14T00:49:31.233Z,6.47
2022-08-14T00:52:05.712Z,6.95
2022-08-14T00:54:34.742Z,7.05
2022-08-14T00:57:03.150Z,6.93
2022-08-14T00:59:31.583Z,6.97
2022-08-14T01:02:01.033Z,7.30
2022-08-14T01:04:51.578Z,7.85
2022-08-14T01:07:21.828Z,7.70
2022-08-14T01:09:56.246Z,8.90
2022-08-14T01:12:29.590Z,7.45
2022-08-14T01:14:59.811Z,7.90
2022-08-14T01:17:50.718Z,7.95
2022-08-14T01:20:41.005Z,11.65
2022-08-14T01:23:16.613Z,8.95
2022-08-14T01:25:51.288Z,8.00
2022-08-14T01:28:46.920Z,8.65
2022-08-14T01:31:15.637Z,7.90
2022-08-14T01:35:15.922Z,9.65
2022-08-14T01:36:39.411Z,7.72
2022-08-14T01:39:16.164Z,11.40
2022-08-14T01:41:58.263Z,11.43
2022-08-14T01:44:33.122Z,11.68
2022-08-14T01:47:11.635Z,17.27
2022-08-14T01:49:46.575Z,8.63
2022-08-14T01:52:34.309Z,9.88
2022-08-14T01:55:18.502Z,8.00
2022-08-14T01:58:00.951Z,9.02
2022-08-14T02:00:36.377Z,9.88
2022-08-14T02:03:06.168Z,9.18
2022-08-14T02:05:38.510Z,10.00
2022-08-14T02:08:08.731Z,13.35
2022-08-14T02:10:47.426Z,8.15
2022-08-14T02:13:17.363Z,10.15
2022-08-14T02:15:45.788Z,8.10
2022-08-14T02:20:46.261Z,8.27
2022-08-14T02:23:14.935Z,8.50
2022-08-14T02:25:44.238Z,14.93
2022-08-14T02:28:56.888Z,13.32
2022-08-14T02:31:10.843Z,8.68
2022-08-14T02:33:42.905Z,12.50
2022-08-14T02:37:02.431Z,10.75
2022-08-14T02:38:58.856Z,8.73
2022-08-14T02:41:28.619Z,8.07
2022-08-14T02:44:00.925Z,8.30
2022-08-14T02:46:32.284Z,8.65
2022-08-14T02:49:06.529Z,8.48
2022-08-14T02:51:36.603Z,8.70
2022-08-14T02:54:07.245Z,11.17
2022-08-14T02:57:13.871Z,8.50
2022-08-14T02:59:33.837Z,12.68
2022-08-14T03:02:03.595Z,9.63
2022-08-14T03:04:32.558Z,11.77
2022-08-14T03:07:07.804Z,13.93
2022-08-14T03:10:24.354Z,14.15
2022-08-14T03:12:32.234Z,8.68
2022-08-14T03:15:06.493Z,9.15
2022-08-14T03:17:41.050Z,16.27
2022-08-14T03:20:22.861Z,12.85
2022-08-14T03:22:50.930Z,14.23
2022-08-14T03:25:22.281Z,13.95
2022-08-14T03:27:58.266Z,9.82
2022-08-14T03:30:39.255Z,12.15
2022-08-14T03:33:10.557Z,17.45
2022-08-14T03:36:05.655Z,14.00
2022-08-14T03:39:12.537Z,10.07
2022-08-14T03:41:23.160Z,18.75
2022-08-14T03:44:01.551Z,15.20
2022-08-14T03:46:54.461Z,18.05
2022-08-14T03:49:28.337Z,13.98
2022-08-14T03:52:00.415Z,16.13
2022-08-14T03:54:30.493Z,15.68
2022-08-14T03:57:02.984Z,11.40
2022-08-14T03:59:35.442Z,12.93
2022-08-14T04:02:04.675Z,18.63
2022-08-14T04:04:38.252Z,13.93
2022-08-14T04:07:06.697Z,20.35
2022-08-14T04:09:34.390Z,19.90
2022-08-14T04:12:02.962Z,11.10
2022-08-14T04:14:37.266Z,15.32
2022-08-14T04:17:05.879Z,12.90
2022-08-14T04:19:39.177Z,11.55
2022-08-14T04:22:06.810Z,13.85
2022-08-14T04:24:37.965Z,13.75
2022-08-14T04:27:17.069Z,15.20
2022-08-14T04:29:45.451Z,15.93
2022-08-14T04:33:00.016Z,17.45
2022-08-14T04:35:07.165Z,17.63
2022-08-14T04:38:36.925Z,18.38
2022-08-14T04:41:16.078Z,12.40
2022-08-14T04:43:43.580Z,15.68
2022-08-14T04:46:56.956Z,21.85
2022-08-14T04:49:07.952Z,24.48
2022-08-14T04:51:46.625Z,26.02
2022-08-14T04:54:20.858Z,17.23
2022-08-14T04:56:51.794Z,12.85
2022-08-14T04:59:23.093Z,11.30
2022-08-14T05:01:56.356Z,14.95
2022-08-14T05:04:25.244Z,14.02
2022-08-14T05:06:55.346Z,16.83
2022-08-14T05:09:28.945Z,13.25
2022-08-14T05:12:59.316Z,18.10
2022-08-14T05:14:53.715Z,13.20
2022-08-14T05:17:32.019Z,14.15
2022-08-14T05:21:55.431Z,15.25
2022-08-14T05:23:00.092Z,14.15
2022-08-14T05:25:31.926Z,12.15
2022-08-14T05:28:29.171Z,10.50
2022-08-14T05:30:58.875Z,10.38
2022-08-14T05:33:31.135Z,12.07
2022-08-14T05:36:03.642Z,14.93
2022-08-14T05:38:39.903Z,12.48
2022-08-14T05:41:13.025Z,13.40
2022-08-14T05:43:41.970Z,9.43
2022-08-14T05:46:15.392Z,10.45
2022-08-14T05:48:43.842Z,8.73
2022-08-14T05:51:13.494Z,15.65
2022-08-14T05:53:42.311Z,9.85
2022-08-14T05:56:09.866Z,10.15
2022-08-14T05:58:41.212Z,12.98
2022-08-14T06:01:10.273Z,13.43
2022-08-14T06:03:40.227Z,13.15
2022-08-14T06:06:08.087Z,13.60
2022-08-14T06:08:41.511Z,12.15
2022-08-14T06:11:09.521Z,10.40
2022-08-14T06:13:45.318Z,10.32
2022-08-14T06:16:18.235Z,10.55
2022-08-14T06:18:52.393Z,25.65
2022-08-14T06:21:23.922Z,14.32
2022-08-14T06:23:52.185Z,12.95
2022-08-14T06:26:20.482Z,19.67
2022-08-14T06:28:52.377Z,14.68
2022-08-14T06:31:22.698Z,9.65
2022-08-14T06:35:02.970Z,23.45
2022-08-14T06:36:39.468Z,10.23
2022-08-14T06:39:10.440Z,13.43
2022-08-14T06:41:57.592Z,13.77
2022-08-14T06:44:30.633Z,9.98
2022-08-14T06:47:02.789Z,12.95
2022-08-14T06:49:43.471Z,19.55
2022-08-14T06:52:15.113Z,11.55
2022-08-14T06:54:43.471Z,20.50
2022-08-14T06:57:12.275Z,14.40
2022-08-14T06:59:41.154Z,9.45
2022-08-14T07:02:28.687Z,14.13
2022-08-14T07:05:20.822Z,14.52
2022-08-14T07:07:51.248Z,12.60
2022-08-14T07:10:18.467Z,17.63
2022-08-14T07:13:01.494Z,15.23
2022-08-14T07:15:34.113Z,12.40
2022-08-14T07:18:08.981Z,13.75
2022-08-14T07:20:38.306Z,12.93
2022-08-14T07:23:09.393Z,14.90
2022-08-14T07:25:42.306Z,16.63
2022-08-14T07:28:20.552Z,13.80
2022-08-14T07:30:50.935Z,14.60
2022-08-14T07:33:24.530Z,20.10
2022-08-14T07:36:00.630Z,12.35
2022-08-14T07:38:35.449Z,15.13
2022-08-14T07:41:11.782Z,11.82
2022-08-14T07:43:44.132Z,16.35
2022-08-14T07:46:21.234Z,19.85
2022-08-14T07:48:57.057Z,12.63
2022-08-14T07:51:24.644Z,15.30
2022-08-14T07:53:57.173Z,14.60
2022-08-14T07:56:47.968Z,23.88
2022-08-14T07:59:12.879Z,17.17
2022-08-14T08:01:51.461Z,22.35
2022-08-14T08:04:25.241Z,14.93
2022-08-14T08:06:55.163Z,12.70
2022-08-14T08:09:32.528Z,16.25
2022-08-14T08:12:04.803Z,16.63
2022-08-14T08:14:56.199Z,19.45
2022-08-14T08:17:24.087Z,16.75
2022-08-14T08:19:51.870Z,22.10
2022-08-14T08:22:21.889Z,15.30
2022-08-14T08:24:50.338Z,20.13
2022-08-14T08:27:22.280Z,15.25
2022-08-14T08:29:51.297Z,14.00
2022-08-14T08:32:19.290Z,15.27
2022-08-14T08:34:49.237Z,14.75
2022-08-14T08:37:16.754Z,10.88
2022-08-14T08:40:01.872Z,11.60
2022-08-14T08:42:44.736Z,13.15
2022-08-14T08:45:17.188Z,14.40
2022-08-14T08:47:46.461Z,16.42
2022-08-14T08:53:08.971Z,14.43
2022-08-14T08:55:42.501Z,17.08
2022-08-14T08:58:24.855Z,18.85
2022-08-14T09:00:55.811Z,11.43
2022-08-14T09:03:27.306Z,17.70
2022-08-14T09:05:56.527Z,15.88
2022-08-14T09:08:31.215Z,16.30
2022-08-14T09:11:20.929Z,17.05
2022-08-14T09:13:53.799Z,12.90
2022-08-14T09:16:26.325Z,12.20
2022-08-14T09:18:55.965Z,10.80
2022-08-14T09:21:24.954Z,15.63
2022-08-14T09:24:28.679Z,17.30
2022-08-14T09:26:49.224Z,22.27
2022-08-14T09:29:20.022Z,24.90
2022-08-14T09:31:57.471Z,21.15
2022-08-14T09:34:28.522Z,14.35
2022-08-14T09:37:14.035Z,13.35
2022-08-14T09:40:06.946Z,15.82
2022-08-14T09:42:59.134Z,14.13
2022-08-14T09:45:39.765Z,18.80
2022-08-14T09:48:27.930Z,15.18
2022-08-14T09:54:18.948Z,22.10
2022-08-14T09:56:56.914Z,24.42
2022-08-14T09:59:32.040Z,13.25
2022-08-14T10:01:59.979Z,13.57
2022-08-14T10:04:34.308Z,12.00
2022-08-14T10:07:06.308Z,11.80
2022-08-14T10:10:00.012Z,8.52
2022-08-14T10:12:44.722Z,13.27
2022-08-14T10:15:32.364Z,11.55
2022-08-14T10:18:17.326Z,15.32
2022-08-14T10:21:01.180Z,12.18
2022-08-14T10:23:43.159Z,10.35
2022-08-14T10:26:11.877Z,14.32
2022-08-14T10:29:18.373Z,19.05
2022-08-14T10:31:44.891Z,15.98
2022-08-14T10:34:19.040Z,15.65
2022-08-14T10:36:50.209Z,12.73
2022-08-14T10:39:30.271Z,10.45
2022-08-14T10:42:18.230Z,10.90
2022-08-14T10:44:52.576Z,12.27
2022-08-14T10:47:41.384Z,11.57
2022-08-14T10:50:12.097Z,13.93
2022-08-14T10:52:43.648Z,11.57
2022-08-14T10:55:17.438Z,18.25
2022-08-14T10:57:58.255Z,12.20
2022-08-14T11:00:30.192Z,48.92
2022-08-14T11:03:10.873Z,30.42
2022-08-14T11:05:44.045Z,31.48
2022-08-14T11:08:15.566Z,32.88
2022-08-14T11:10:56.712Z,19.38
2022-08-14T11:13:37.681Z,15.88
2022-08-14T11:16:05.030Z,31.38
2022-08-14T11:18:55.974Z,19.45
2022-08-14T11:21:30.060Z,13.55
2022-08-14T11:23:59.581Z,13.70
2022-08-14T11:26:30.150Z,16.50
2022-08-14T11:29:00.337Z,28.70
2022-08-14T11:31:38.792Z,26.83
2022-08-14T11:34:29.978Z,24.73
2022-08-14T11:37:03.938Z,21.10
2022-08-14T11:39:45.389Z,25.95
2022-08-14T11:42:56.484Z,23.48
2022-08-14T11:45:17.101Z,24.65
2022-08-14T11:48:13.488Z,23.85
2022-08-14T11:50:37.165Z,23.63
2022-08-14T11:53:08.745Z,21.88
2022-08-14T11:55:38.841Z,26.98
2022-08-14T11:58:15.559Z,21.53
2022-08-14T12:00:53.756Z,18.65
2022-08-14T12:03:27.233Z,22.10
2022-08-14T12:06:28.682Z,25.92
2022-08-14T12:09:00.152Z,25.63
2022-08-14T12:11:43.378Z,23.25
2022-08-14T12:14:30.277Z,25.77
2022-08-14T12:17:12.557Z,23.75
2022-08-14T12:19:51.062Z,22.10
2022-08-14T12:22:43.134Z,20.55
2022-08-14T12:25:20.349Z,23.80
2022-08-14T12:27:53.397Z,20.52
2022-08-14T12:30:39.367Z,15.18
2022-08-14T12:33:23.976Z,22.02
2022-08-14T12:35:56.342Z,19.17
2022-08-14T12:38:54.375Z,14.07
2022-08-14T12:41:24.140Z,16.02
2022-08-14T12:43:59.736Z,21.65
2022-08-14T12:46:35.037Z,16.17
2022-08-14T12:49:16.141Z,13.75
2022-08-14T12:51:55.617Z,12.75
2022-08-14T12:54:28.465Z,9.48
2022-08-14T12:57:04.936Z,11.45
2022-08-14T12:59:37.087Z,8.30
2022-08-14T13:02:26.351Z,5.95
2022-08-14T13:04:56.736Z,3.65
2022-08-14T13:07:32.051Z,2.80
2022-08-14T13:10:33.627Z,5.85
2022-08-14T13:13:12.613Z,3.30
2022-08-14T13:15:40.589Z,5.22
2022-08-14T13:18:10.656Z,7.25
2022-08-14T13:20:48.019Z,5.57
2022-08-14T13:23:19.504Z,8.02
2022-08-14T13:25:59.956Z,5.60
2022-08-14T13:28:32.727Z,7.15
2022-08-14T13:31:11.195Z,8.23
2022-08-14T13:33:43.123Z,4.85
2022-08-14T13:36:11.122Z,5.60
2022-08-14T13:38:53.474Z,5.57
2022-08-14T13:41:31.806Z,5.05
2022-08-14T13:44:04.906Z,5.03
2022-08-14T13:49:02.629Z,5.75
2022-08-14T13:51:36.231Z,6.13
2022-08-14T13:54:11.079Z,5.38
2022-08-14T13:56:42.214Z,4.72
2022-08-14T13:59:10.912Z,4.68
2022-08-14T14:01:43.594Z,4.72
2022-08-14T14:04:19.898Z,4.25
2022-08-14T14:07:00.870Z,4.40
2022-08-14T14:09:32.504Z,4.57
2022-08-14T14:12:37.510Z,5.30
2022-08-14T14:15:05.251Z,4.80
2022-08-14T14:17:35.778Z,4.65
2022-08-14T14:20:06.077Z,4.45
2022-08-14T14:22:35.743Z,5.38
2022-08-14T14:25:21.887Z,4.28
2022-08-14T14:27:53.634Z,6.15
2022-08-14T14:30:52.394Z,4.35
2022-08-14T14:33:44.093Z,6.95
2022-08-14T14:36:05.060Z,4.80
2022-08-14T14:38:34.124Z,5.90
2022-08-14T14:41:05.566Z,5.25
2022-08-14T14:43:37.177Z,8.73
2022-08-14T14:46:09.554Z,6.97
2022-08-14T14:48:46.675Z,7.13
2022-08-14T14:51:23.143Z,7.40
2022-08-14T14:53:52.606Z,8.38
2022-08-14T14:56:47.570Z,6.78
2022-08-14T14:59:08.916Z,6.15
2022-08-14T15:01:38.152Z,7.20
2022-08-14T15:04:20.080Z,6.65
2022-08-14T15:06:49.238Z,8.10
2022-08-14T15:09:17.562Z,10.25
2022-08-14T15:11:47.130Z,14.27
2022-08-14T15:14:56.122Z,11.35
2022-08-14T15:17:03.986Z,13.13
2022-08-14T15:19:32.111Z,39.08
2022-08-14T15:22:00.163Z,15.82
2022-08-14T15:24:27.379Z,7.45
2022-08-14T15:27:08.463Z,9.93
2022-08-14T15:29:43.635Z,7.68
2022-08-14T15:33:23.934Z,11.07
2022-08-14T15:35:51.375Z,7.35
2022-08-14T15:38:19.407Z,5.88
2022-08-14T15:40:51.613Z,8.25
2022-08-14T15:43:27.247Z,8.20
2022-08-14T15:45:56.491Z,5.47
2022-08-14T15:48:23.782Z,5.00
2022-08-14T15:50:51.678Z,5.30
2022-08-14T15:53:22.556Z,6.22
2022-08-14T15:55:54.782Z,6.63
2022-08-14T15:58:24.258Z,6.05
2022-08-14T16:01:12.937Z,5.35
2022-08-14T16:03:42.512Z,6.55
2022-08-14T16:06:21.089Z,6.07
2022-08-14T16:08:58.777Z,7.35
2022-08-14T16:11:28.870Z,9.30
2022-08-14T16:14:01.304Z,6.18
2022-08-14T16:16:47.379Z,7.70
2022-08-14T16:19:19.690Z,8.55
2022-08-14T16:22:02.060Z,9.83
2022-08-14T16:27:37.877Z,13.50
2022-08-14T16:30:24.415Z,7.57
2022-08-14T16:32:57.625Z,7.15
2022-08-14T16:35:43.185Z,7.90
2022-08-14T16:38:46.490Z,12.88
2022-08-14T16:40:24.278Z,7.82
2022-08-14T16:41:29.397Z,8.50
2022-08-14T16:44:01.829Z,9.00
2022-08-14T16:46:32.634Z,8.82
2022-08-14T16:49:00.998Z,8.18
2022-08-14T16:51:34.966Z,12.35
2022-08-14T16:54:21.112Z,9.65
2022-08-14T16:56:53.831Z,10.30
2022-08-14T16:59:30.595Z,8.68
2022-08-14T17:02:11.949Z,9.07
2022-08-14T17:04:43.008Z,13.10
2022-08-14T17:07:17.606Z,9.05
2022-08-14T17:09:49.075Z,8.32
2022-08-14T17:12:33.427Z,9.10
2022-08-14T17:15:10.732Z,11.15
2022-08-14T17:17:38.860Z,10.60
2022-08-14T17:20:39.367Z,10.50
2022-08-14T17:23:00.297Z,9.15
2022-08-14T17:25:37.400Z,8.95
2022-08-14T17:28:52.246Z,9.65
2022-08-14T17:31:08.893Z,14.15
2022-08-14T17:33:40.885Z,9.30
2022-08-14T17:36:24.598Z,11.40
2022-08-14T17:39:06.517Z,8.35
2022-08-14T17:42:03.069Z,9.18
2022-08-14T17:44:44.980Z,9.07
2022-08-14T17:47:18.018Z,8.25
2022-08-14T17:49:54.111Z,10.02
2022-08-14T17:52:34.339Z,8.10
2022-08-14T17:56:01.782Z,12.05
2022-08-14T17:58:20.761Z,8.38
2022-08-14T18:01:13.171Z,8.48
2022-08-14T18:03:50.987Z,9.15
2022-08-14T18:06:58.460Z,9.75
2022-08-14T18:09:37.589Z,9.68
2022-08-14T18:12:09.933Z,9.95
2022-08-14T18:14:59.362Z,10.70
2022-08-14T18:17:31.426Z,10.30
2022-08-14T18:20:01.343Z,10.20
2022-08-14T18:22:39.353Z,10.63
2022-08-14T18:25:18.493Z,10.75
2022-08-14T18:27:51.523Z,8.98
2022-08-14T18:30:31.636Z,8.98
2022-08-14T18:33:35.388Z,9.20
2022-08-14T18:36:47.645Z,8.93
2022-08-14T18:39:32.219Z,11.27
2022-08-14T18:42:23.417Z,10.10
2022-08-14T18:44:52.537Z,13.73
2022-08-14T18:47:22.805Z,10.25
2022-08-14T18:50:01.279Z,11.53
2022-08-14T18:52:34.482Z,14.52
2022-08-14T18:55:20.909Z,19.90
2022-08-14T18:57:57.610Z,12.27
2022-08-14T19:00:33.874Z,12.48
2022-08-14T19:03:04.892Z,12.45
2022-08-14T19:05:37.998Z,12.00
2022-08-14T19:08:22.227Z,11.90
2022-08-14T19:10:52.519Z,12.60
2022-08-14T19:13:51.349Z,12.00
2022-08-14T19:16:26.148Z,15.15
2022-08-14T19:19:00.210Z,13.00
2022-08-14T19:21:29.990Z,14.30
2022-08-14T19:24:26.780Z,13.00
2022-08-14T19:27:24.210Z,12.57
2022-08-14T19:30:20.117Z,13.07
2022-08-14T19:32:57.046Z,12.57
2022-08-14T19:35:48.688Z,16.23
2022-08-14T19:38:47.838Z,12.15
2022-08-14T19:41:21.471Z,13.63
2022-08-14T19:43:52.259Z,11.50
2022-08-14T19:46:39.441Z,11.45
2022-08-14T19:49:23.224Z,12.65
2022-08-14T19:52:05.217Z,15.55
2022-08-14T19:54:44.941Z,12.98
2022-08-14T19:57:38.599Z,12.07
2022-08-14T20:00:28.438Z,11.75
2022-08-14T20:03:10.585Z,11.98
2022-08-14T20:05:45.429Z,14.00
2022-08-14T20:11:01.313Z,11.15
2022-08-14T20:11:18.824Z,11.52
2022-08-14T20:14:10.412Z,11.18
2022-08-14T20:16:42.721Z,13.48
2022-08-14T20:19:14.254Z,13.68
2022-08-14T20:21:58.504Z,11.02
2022-08-14T20:24:42.923Z,12.02
2022-08-14T20:27:33.390Z,15.45
2022-08-14T20:30:33.615Z,11.90
2022-08-14T20:33:07.731Z,13.20
2022-08-14T20:35:43.573Z,13.55
2022-08-14T20:38:30.910Z,12.23
2022-08-14T20:41:00.877Z,12.30
2022-08-14T20:43:52.830Z,17.63
2022-08-14T20:46:30.045Z,11.98
2022-08-14T20:49:00.237Z,15.45
2022-08-14T20:51:47.722Z,13.07
2022-08-14T20:54:34.271Z,13.27
2022-08-14T20:57:11.867Z,12.60
2022-08-14T20:59:44.750Z,13.45
2022-08-14T21:02:34.306Z,12.52
2022-08-14T21:05:16.308Z,13.23
2022-08-14T21:07:51.113Z,13.30
2022-08-14T21:10:34.042Z,13.75
2022-08-14T21:14:09.153Z,13.93
2022-08-14T21:15:57.206Z,12.75
2022-08-14T21:18:32.591Z,14.45
2022-08-14T21:21:07.648Z,13.20
2022-08-14T21:23:53.837Z,14.13
2022-08-14T21:26:52.242Z,13.80
2022-08-14T21:29:19.581Z,13.18
2022-08-14T21:31:55.725Z,15.15
2022-08-14T21:34:31.777Z,14.10
2022-08-14T21:37:08.903Z,14.45
2022-08-14T21:39:38.272Z,13.95
2022-08-14T21:42:06.455Z,14.48
2022-08-14T21:44:42.734Z,13.05
2022-08-14T21:47:13.318Z,15.25
2022-08-14T21:49:46.346Z,14.13
2022-08-14T21:52:51.834Z,14.05
2022-08-14T21:55:10.357Z,13.77
2022-08-14T21:57:55.719Z,13.60
2022-08-14T22:00:36.504Z,13.90
2022-08-14T22:03:11.424Z,13.30
2022-08-14T22:05:40.744Z,15.25
2022-08-14T22:08:12.303Z,14.25
2022-08-14T22:10:44.666Z,19.00
2022-08-14T22:13:16.843Z,14.98
2022-08-14T22:15:50.041Z,16.07
2022-08-14T22:18:21.523Z,17.65
2022-08-14T22:20:54.039Z,16.02
2022-08-14T22:23:24.956Z,16.15
2022-08-14T22:25:55.271Z,16.08
2022-08-14T22:28:33.159Z,15.93
2022-08-14T22:31:09.902Z,17.40
2022-08-14T22:33:39.905Z,14.95
2022-08-14T22:36:27.140Z,15.30
2022-08-14T22:39:02.288Z,18.00
2022-08-14T22:41:32.633Z,16.52
2022-08-14T22:44:19.867Z,16.65
2022-08-14T22:46:49.608Z,17.00
2022-08-14T22:50:28.770Z,16.65
2022-08-14T22:52:33.110Z,15.70
2022-08-14T22:54:58.833Z,20.63
2022-08-14T22:57:27.185Z,16.17
2022-08-14T23:00:09.532Z,14.13
2022-08-14T23:02:37.290Z,16.38
2022-08-14T23:05:07.619Z,15.80
2022-08-14T23:09:01.753Z,14.80
2022-08-14T23:10:32.493Z,14.52
2022-08-14T23:13:02.584Z,13.93
2022-08-14T23:15:30.591Z,20.38
2022-08-14T23:17:58.365Z,14.23
2022-08-14T23:20:29.562Z,14.43
2022-08-14T23:22:57.835Z,14.00
2022-08-14T23:25:57.366Z,14.32
2022-08-14T23:28:34.846Z,16.33
2022-08-14T23:31:12.627Z,15.20
2022-08-14T23:33:51.918Z,14.23
2022-08-14T23:36:31.800Z,13.63
2022-08-14T23:39:12.296Z,14.63
2022-08-14T23:41:52.987Z,15.32
2022-08-14T23:44:23.906Z,14.93
2022-08-14T23:46:57.032Z,15.63
2022-08-14T23:49:31.988Z,14.70
2022-08-14T23:52:56.336Z,15.15
2022-08-14T23:55:06.551Z,14.95
2022-08-14T23:57:43.931Z,15.13
